You are listening to:
LWSK ACC (Lower) - Petrovec, North Macedonia, Republic of

LWSK 162130Z VRB01KT 9999 SCT100 22/12 Q1017 NOSIG

If stream doesn't start automatically press the play button
If stream stops then reload player then press play